TimeCST,TemperatureF,Dew PointF,Humidity,Sea Level PressureIn,VisibilityMPH,Wind Direction,Wind SpeedMPH,Gust SpeedMPH,PrecipitationIn,Events,Conditions,WindDirDegrees,DateUTC
12:15 AM,36.9,9.9,33,30.03,10.0,SW,8.1,-,N/A,,Clear,230,2013-02-14 06:15:00
12:35 AM,36.0,10.2,34,30.03,10.0,SW,8.1,-,N/A,,Clear,230,2013-02-14 06:35:00
12:55 AM,35.1,10.2,36,30.03,10.0,SW,8.1,-,N/A,,Clear,230,2013-02-14 06:55:00
1:15 AM,36.3,10.8,35,30.03,10.0,SW,9.2,-,N/A,,Clear,230,2013-02-14 07:15:00
1:35 AM,36.1,10.8,35,30.04,10.0,SW,5.8,-,N/A,,Clear,220,2013-02-14 07:35:00
1:55 AM,33.8,10.9,39,30.04,10.0,SW,8.1,-,N/A,,Clear,220,2013-02-14 07:55:00
2:15 AM,31.8,11.1,42,30.04,10.0,Calm,Calm,-,N/A,,Clear,0,2013-02-14 08:15:00
2:35 AM,32.4,11.3,42,30.03,10.0,Calm,Calm,-,N/A,,Clear,0,2013-02-14 08:35:00
2:55 AM,29.8,11.3,46,30.03,10.0,Calm,Calm,-,N/A,,Clear,0,2013-02-14 08:55:00
3:15 AM,28.2,10.9,48,30.03,10.0,Calm,Calm,-,N/A,,Clear,0,2013-02-14 09:15:00
3:35 AM,27.9,10.4,48,30.02,10.0,Calm,Calm,-,N/A,,Clear,0,2013-02-14 09:35:00
3:55 AM,27.9,10.2,48,30.02,10.0,Calm,Calm,-,N/A,,Clear,0,2013-02-14 09:55:00
4:15 AM,28.0,10.4,48,30.02,10.0,Calm,Calm,-,N/A,,Clear,0,2013-02-14 10:15:00
4:35 AM,27.3,10.4,49,30.02,10.0,East,3.5,-,N/A,,Clear,80,2013-02-14 10:35:00
4:55 AM,27.7,10.4,48,30.02,10.0,Calm,Calm,-,N/A,,Clear,0,2013-02-14 10:55:00
5:15 AM,28.4,10.6,47,30.03,10.0,ESE,3.5,-,N/A,,Clear,110,2013-02-14 11:15:00
5:35 AM,28.0,10.8,48,30.03,10.0,Calm,Calm,-,N/A,,Clear,0,2013-02-14 11:35:00
5:55 AM,28.8,10.9,47,30.04,10.0,Calm,Calm,-,N/A,,Clear,0,2013-02-14 11:55:00
6:15 AM,26.6,10.9,52,30.05,10.0,Calm,Calm,-,N/A,,Clear,0,2013-02-14 12:15:00
6:35 AM,26.6,11.3,53,30.05,10.0,WSW,3.5,-,N/A,,Clear,240,2013-02-14 12:35:00
6:55 AM,24.4,11.5,58,30.05,10.0,WSW,3.5,-,N/A,,Clear,250,2013-02-14 12:55:00
7:15 AM,26.4,12.0,55,30.06,10.0,West,6.9,-,N/A,,Clear,280,2013-02-14 13:15:00
7:55 AM,27.9,12.2,52,30.07,10.0,NNW,3.5,-,N/A,,Clear,340,2013-02-14 13:55:00
8:35 AM,31.1,14.2,50,30.08,10.0,NW,3.5,-,N/A,,Clear,320,2013-02-14 14:35:00
9:15 AM,44.4,15.6,31,30.09,10.0,West,10.4,-,N/A,,Clear,280,2013-02-14 15:15:00
9:35 AM,47.5,15.1,27,30.09,10.0,West,10.4,-,N/A,,Clear,270,2013-02-14 15:35:00
9:55 AM,49.6,15.4,26,30.09,10.0,West,9.2,-,N/A,,Clear,280,2013-02-14 15:55:00
10:15 AM,52.0,15.6,24,30.09,10.0,West,10.4,-,N/A,,Clear,280,2013-02-14 16:15:00
10:35 AM,53.1,15.3,22,30.08,10.0,WNW,12.7,-,N/A,,Clear,290,2013-02-14 16:35:00
10:55 AM,54.5,15.6,22,30.07,10.0,West,10.4,-,N/A,,Clear,280,2013-02-14 16:55:00
11:15 AM,56.5,16.3,21,30.07,10.0,NW,10.4,-,N/A,,Clear,310,2013-02-14 17:15:00
11:55 AM,59.0,16.3,19,30.05,10.0,NW,8.1,-,N/A,,Clear,310,2013-02-14 17:55:00
12:15 PM,60.1,16.2,18,30.04,10.0,NW,6.9,-,N/A,,Clear,320,2013-02-14 18:15:00
12:35 PM,61.0,16.5,18,30.03,10.0,NNW,5.8,-,N/A,,Clear,330,2013-02-14 18:35:00
12:55 PM,61.7,16.9,18,30.02,10.0,North,4.6,-,N/A,,Clear,360,2013-02-14 18:55:00
1:35 PM,65.5,17.2,16,29.99,10.0,West,12.7,-,N/A,,Clear,270,2013-02-14 19:35:00
2:15 PM,67.6,18.0,15,29.97,10.0,West,10.4,18.4,N/A,,Clear,260,2013-02-14 20:15:00
2:35 PM,67.8,17.1,14,29.97,10.0,West,16.1,23.0,N/A,,Clear,260,2013-02-14 20:35:00
3:15 PM,68.5,17.2,14,29.96,10.0,West,16.1,19.6,N/A,,Clear,280,2013-02-14 21:15:00
3:35 PM,68.9,17.2,14,29.95,10.0,West,12.7,-,N/A,,Clear,270,2013-02-14 21:35:00
3:55 PM,68.9,17.2,14,29.95,10.0,West,15.0,19.6,N/A,,Clear,270,2013-02-14 21:55:00
4:15 PM,69.3,17.6,14,29.95,10.0,WSW,12.7,21.9,N/A,,Clear,250,2013-02-14 22:15:00
4:35 PM,69.4,17.6,14,29.94,10.0,West,15.0,-,N/A,,Clear,260,2013-02-14 22:35:00
5:15 PM,68.9,17.4,14,29.93,10.0,West,8.1,16.1,N/A,,Clear,270,2013-02-14 23:15:00
5:35 PM,68.7,17.4,14,29.93,10.0,West,10.4,-,N/A,,Clear,270,2013-02-14 23:35:00
5:55 PM,67.5,17.4,15,29.93,10.0,West,11.5,-,N/A,,Clear,270,2013-02-14 23:55:00
6:15 PM,65.5,17.2,16,29.93,10.0,West,9.2,-,N/A,,Clear,280,2013-02-15 00:15:00
6:35 PM,62.4,16.2,17,29.93,10.0,West,8.1,-,N/A,,Clear,270,2013-02-15 00:35:00
6:55 PM,57.6,14.2,18,29.93,10.0,West,8.1,-,N/A,,Clear,270,2013-02-15 00:55:00
7:15 PM,55.4,15.6,21,29.95,10.0,West,6.9,-,N/A,,Clear,280,2013-02-15 01:15:00
7:35 PM,52.3,15.8,24,29.96,10.0,West,10.4,-,N/A,,Clear,270,2013-02-15 01:35:00
8:55 PM,50.2,17.2,27,30.00,10.0,West,11.5,-,N/A,,Clear,280,2013-02-15 02:55:00
9:35 PM,50.9,16.5,26,30.02,10.0,WNW,10.4,-,N/A,,Clear,290,2013-02-15 03:35:00
9:55 PM,47.5,16.7,29,30.02,10.0,NW,6.9,-,N/A,,Clear,320,2013-02-15 03:55:00
10:15 PM,46.6,16.5,30,30.03,10.0,WNW,6.9,-,N/A,,Clear,290,2013-02-15 04:15:00
10:35 PM,45.3,15.6,30,30.03,10.0,WNW,6.9,-,N/A,,Clear,300,2013-02-15 04:35:00
10:55 PM,41.7,16.9,37,30.05,10.0,NW,6.9,-,N/A,,Clear,320,2013-02-15 04:55:00
11:15 PM,41.5,15.8,35,30.05,10.0,WNW,8.1,-,N/A,,Clear,290,2013-02-15 05:15:00
11:35 PM,41.2,15.6,36,30.06,10.0,NW,8.1,-,N/A,,Clear,320,2013-02-15 05:35:00
11:55 PM,45.5,14.7,29,30.09,10.0,NNW,9.2,-,N/A,,Clear,340,2013-02-15 05:55:00